Impacts METAR Board INFO
IDs:

KSFO - San Francisco Intl, CA, US

Updated at: 1759 UTC 17 Jan 2018
Potential Impact None Slight Moderate High
Time17/05Z 17/06Z 17/07Z 17/08Z 17/09Z 17/10Z 17/11Z 17/12Z 17/13Z 17/14Z 17/15Z 17/16Z 17/17Z
VIS9 8 9 9 9 8 7 7 8 7 6 4 3
CIG15 14 14 15 14 14 10 10 12 8 6 6 6
CoverOVCOVCOVCOVCOVCOVCOVCOVCOVCOVCOVCOVCOVC
FltCatMVFRMVFRMVFRMVFRMVFRMVFRMVFRMVFRMVFRIFRIFRIFRIFR
WX--------------------BRBRBR
WDir040400201036020090130800
WSpd0 5 3 0 3 6 4 3 0 3 5 4 0
WGst-- -- -- -- -- -- -- -- -- -- -- -- --
Raw hourly METARs
KSFO 170456Z 00000KT 9SM OVC015 13/12 A3022 RMK AO2 SLP231 T01330117
KSFO 170556Z 04005KT 8SM OVC014 13/11 A3024 RMK AO2 SLP241 T01330111 10144 20128 53016
KSFO 170656Z 04003KT 9SM FEW011 BKN014 OVC017 13/12 A3024 RMK AO2 SLP240 T01330117
KSFO 170756Z 00000KT 9SM FEW011 BKN015 OVC017 13/12 A3022 RMK AO2 SLP234 T01330117 401500128
KSFO 170856Z 02003KT 9SM FEW011 BKN014 OVC017 13/11 A3021 RMK AO2 SLP231 T01330106 58010
KSFO 170956Z 01006KT 8SM FEW012 BKN014 OVC016 13/11 A3022 RMK AO2 SLP233 T01280106
KSFO 171056Z 36004KT 7SM FEW008 BKN010 OVC012 13/11 A3022 RMK AO2 SLP233 T01280106
KSFO 171156Z 02003KT 7SM FEW008 BKN010 OVC012 13/11 A3022 RMK AO2 SLP232 T01280111 10133 20128 50001
KSFO 171256Z 00000KT 8SM FEW008 BKN012 OVC015 13/11 A3022 RMK AO2 SLP231 T01280111
KSFO 171356Z 09003KT 7SM FEW006 BKN008 OVC011 12/11 A3020 RMK AO2 SLP227 T01220111
KSFO 171456Z 13005KT 6SM BR OVC006 13/11 A3020 RMK AO2 SLP227 T01280111 55004
KSFO 171556Z 08004KT 4SM BR OVC006 13/11 A3021 RMK AO2 SLP229 T01280111
KSFO 171656Z 00000KT 3SM BR OVC006 13/11 A3025 RMK AO2 SLP241 T01280111